Time;durP1;ratioP1;P1;durP2;ratioP2;P2;SDS_P1;SDS_P2;PMS_P1;PMS_P2;Temp;Humidity;BMP_temperature;BMP_pressure;BME280_temperature;BME280_humidity;BME280_pressure;Samples;Min_cycle;Max_cycle;Signal;HPM_P1;HPM_P2
2022/04/03 00:01:34;;;;;;;4.27;2.20;;;-1.30;99.90;;;;;;5268226;28;20549;-51
2022/04/03 00:04:04;;;;;;;4.20;2.07;;;-1.30;99.90;;;;;;5268089;28;20276;-52
2022/04/03 00:06:35;;;;;;;2.30;2.10;;;-1.20;99.90;;;;;;5268788;28;20189;-50
2022/04/03 00:09:05;;;;;;;4.47;2.43;;;-1.30;99.90;;;;;;5255673;28;20444;-52
2022/04/03 00:11:36;;;;;;;3.07;2.27;;;-1.30;99.90;;;;;;5264214;28;20744;-50
2022/04/03 00:14:07;;;;;;;8.10;2.23;;;-1.40;99.90;;;;;;5265545;28;20182;-52
2022/04/03 00:16:39;;;;;;;3.57;1.90;;;-1.40;99.90;;;;;;5262352;28;20210;-50
2022/04/03 00:19:09;;;;;;;1.83;1.70;;;-1.40;99.90;;;;;;5266902;28;20458;-53
2022/04/03 00:21:40;;;;;;;1.93;1.83;;;-1.30;99.90;;;;;;5265365;28;20464;-50
2022/04/03 00:24:10;;;;;;;2.53;1.93;;;-1.40;99.90;;;;;;5270153;28;20174;-53
2022/04/03 00:26:41;;;;;;;2.47;1.80;;;-1.30;99.90;;;;;;5256511;28;20190;-51
2022/04/03 00:29:11;;;;;;;2.93;2.40;;;-1.40;99.90;;;;;;5268653;28;20220;-53
2022/04/03 00:31:42;;;;;;;5.33;2.80;;;-1.40;99.90;;;;;;5267309;28;20267;-51
2022/04/03 00:34:12;;;;;;;2.30;2.10;;;-1.50;99.90;;;;;;5263968;28;20205;-51
2022/04/03 00:36:43;;;;;;;1.93;1.83;;;-1.40;99.90;;;;;;5263852;28;20228;-53
2022/04/03 00:39:14;;;;;;;3.80;1.80;;;-1.40;99.90;;;;;;5263686;28;20312;-52
2022/04/03 00:41:44;;;;;;;2.07;1.97;;;-1.40;99.90;;;;;;5264565;28;20223;-51
2022/04/03 00:44:17;;;;;;;1.90;1.90;;;-1.50;99.90;;;;;;5264255;28;20575;-53
2022/04/03 00:46:47;;;;;;;2.20;2.07;;;-1.50;99.90;;;;;;5259438;28;20264;-54
2022/04/03 00:49:18;;;;;;;5.67;2.17;;;-1.50;99.90;;;;;;5264152;28;20610;-54
2022/04/03 00:51:49;;;;;;;6.20;2.63;;;-1.50;99.90;;;;;;5255353;28;20194;-53
2022/04/03 00:54:19;;;;;;;2.77;2.17;;;-1.50;99.90;;;;;;5262551;28;20584;-52
2022/04/03 00:56:51;;;;;;;3.13;2.47;;;-1.50;99.90;;;;;;5263184;28;20275;-52
2022/04/03 00:59:22;;;;;;;4.97;2.63;;;-1.40;99.90;;;;;;5262662;28;20205;-52
2022/04/03 01:01:52;;;;;;;4.27;2.50;;;-1.40;99.90;;;;;;5259537;28;20463;-51
2022/04/03 01:04:23;;;;;;;2.00;1.90;;;-1.40;99.90;;;;;;5264931;28;20438;-55
2022/04/03 01:06:53;;;;;;;3.10;2.67;;;-1.40;99.90;;;;;;5268117;28;20276;-51
2022/04/03 01:09:24;;;;;;;3.50;2.50;;;-1.40;99.90;;;;;;5266345;28;20304;-51
2022/04/03 01:11:56;;;;;;;5.90;2.67;;;-1.50;99.90;;;;;;5267516;28;20273;-50
2022/04/03 01:14:40;;;;;;;13.63;2.47;;;-1.40;99.90;;;;;;5268489;28;20186;-52
2022/04/03 01:17:13;;;;;;;4.00;2.40;;;-1.50;99.90;;;;;;5264687;28;20556;-50
2022/04/03 01:19:44;;;;;;;4.20;2.23;;;-1.40;99.90;;;;;;5266849;28;20490;-51
2022/04/03 01:22:14;;;;;;;2.73;2.40;;;-1.50;99.90;;;;;;5267450;28;20566;-51
2022/04/03 01:24:46;;;;;;;3.47;2.60;;;-1.50;99.90;;;;;;5265627;28;20257;-52
2022/04/03 01:27:17;;;;;;;3.93;2.53;;;-1.50;99.90;;;;;;5261690;28;20205;-53
2022/04/03 01:29:49;;;;;;;4.53;2.67;;;-1.60;99.90;;;;;;5256148;28;20623;-51
2022/04/03 01:32:20;;;;;;;4.90;2.87;;;-1.50;99.90;;;;;;5267843;28;20185;-52
2022/04/03 01:34:51;;;;;;;2.07;1.97;;;-1.60;99.90;;;;;;5261949;28;20533;-51
2022/04/03 01:37:21;;;;;;;2.60;2.00;;;-1.60;99.90;;;;;;5265505;28;21093;-50
2022/04/03 01:39:52;;;;;;;2.93;2.73;;;-1.60;99.90;;;;;;5261731;28;20202;-52
2022/04/03 01:42:22;;;;;;;3.03;2.00;;;-1.60;99.90;;;;;;5267649;28;20202;-51
2022/04/03 01:44:53;;;;;;;3.27;3.07;;;-1.60;99.90;;;;;;5247614;28;20335;-52
2022/04/03 01:47:23;;;;;;;4.33;2.80;;;-1.60;99.90;;;;;;5260987;28;20684;-47
2022/04/03 01:49:54;;;;;;;3.53;2.10;;;-1.60;99.90;;;;;;5261531;28;20182;-51
2022/04/03 01:52:24;;;;;;;3.60;2.00;;;-1.60;99.90;;;;;;5258477;28;20186;-53
2022/04/03 01:54:55;;;;;;;5.30;2.57;;;-1.50;99.90;;;;;;5266467;28;20186;-51
2022/04/03 01:57:27;;;;;;;6.60;2.40;;;-1.40;99.90;;;;;;5265475;28;20178;-51
2022/04/03 01:59:57;;;;;;;2.27;1.90;;;-1.30;99.90;;;;;;5261242;28;20193;-52
2022/04/03 02:02:28;;;;;;;2.27;2.07;;;-1.20;99.90;;;;;;5261111;28;20462;-49
2022/04/03 02:04:58;;;;;;;2.53;2.27;;;-1.10;99.90;;;;;;5258257;28;20259;-52
2022/04/03 02:07:30;;;;;;;4.20;2.33;;;-1.00;99.90;;;;;;5263406;28;20200;-53
2022/04/03 02:10:08;;;;;;;2.40;2.13;;;-0.90;99.90;;;;;;5266331;28;20178;-50
2022/04/03 02:12:39;;;;;;;2.90;1.70;;;-0.80;99.90;;;;;;5266760;28;20576;-51
2022/04/03 02:15:11;;;;;;;1.83;1.73;;;-0.60;99.90;;;;;;5262423;28;20507;-51
2022/04/03 02:17:42;;;;;;;1.73;1.63;;;-0.60;99.90;;;;;;5266074;28;20455;-53
2022/04/03 02:20:13;;;;;;;1.40;1.30;;;-0.50;99.90;;;;;;5264947;28;20446;-55
2022/04/03 02:22:43;;;;;;;4.63;1.90;;;-0.30;99.90;;;;;;5264416;28;20193;-51
2022/04/03 02:25:14;;;;;;;1.70;1.60;;;-0.20;99.90;;;;;;5262073;28;20189;-51
2022/04/03 02:27:49;;;;;;;2.30;1.37;;;-0.20;99.90;;;;;;5266034;28;20696;-51
2022/04/03 02:30:20;;;;;;;3.07;1.93;;;-0.20;99.90;;;;;;5260214;28;20184;-52
2022/04/03 02:32:51;;;;;;;2.53;2.33;;;-0.10;99.90;;;;;;5256752;28;20432;-52
2022/04/03 02:35:22;;;;;;;1.60;1.43;;;-0.10;99.90;;;;;;5264060;28;20527;-51
2022/04/03 02:37:53;;;;;;;2.93;2.07;;;-0.10;99.90;;;;;;5265193;28;20198;-52
2022/04/03 02:40:23;;;;;;;10.17;2.50;;;0.00;99.90;;;;;;5263113;28;20433;-51
2022/04/03 02:42:54;;;;;;;2.40;2.20;;;0.00;99.90;;;;;;5259619;28;20262;-54
2022/04/03 02:45:24;;;;;;;3.80;1.90;;;0.00;99.90;;;;;;5262648;28;20191;-52
2022/04/03 02:47:56;;;;;;;3.67;2.83;;;0.00;99.90;;;;;;5262863;28;20706;-52
2022/04/03 02:50:26;;;;;;;8.70;2.30;;;0.00;99.90;;;;;;5262975;28;20182;-52
2022/04/03 02:52:57;;;;;;;2.63;1.57;;;0.00;99.90;;;;;;5256559;28;20459;-52
2022/04/03 02:55:27;;;;;;;6.33;2.17;;;0.00;99.90;;;;;;5261552;28;20201;-52
2022/04/03 02:57:58;;;;;;;4.73;2.60;;;0.00;99.90;;;;;;5264724;28;20296;-51
2022/04/03 03:00:28;;;;;;;2.90;2.00;;;0.00;99.90;;;;;;5257093;28;20661;-50
2022/04/03 03:03:00;;;;;;;2.83;1.97;;;0.00;99.90;;;;;;5264385;28;20189;-52
2022/04/03 03:05:32;;;;;;;1.93;1.80;;;0.00;99.90;;;;;;5262452;28;20237;-54
2022/04/03 03:08:03;;;;;;;5.83;2.60;;;0.00;99.90;;;;;;5261028;28;20444;-53
2022/04/03 03:10:33;;;;;;;2.00;1.90;;;0.00;99.90;;;;;;5264151;28;20841;-53
2022/04/03 03:13:04;;;;;;;3.87;2.07;;;0.00;99.90;;;;;;5264968;28;20172;-51
2022/04/03 03:15:34;;;;;;;3.53;2.33;;;0.00;99.90;;;;;;5275198;28;20182;-52
2022/04/03 03:18:05;;;;;;;3.00;2.70;;;0.00;99.90;;;;;;5262655;28;20202;-52
2022/04/03 03:20:36;;;;;;;2.67;2.10;;;0.00;99.90;;;;;;5265408;28;20201;-51
2022/04/03 03:23:07;;;;;;;2.50;2.40;;;0.00;99.90;;;;;;5258270;28;20670;-53
2022/04/03 03:25:37;;;;;;;2.17;2.07;;;0.00;99.90;;;;;;5265639;28;20432;-52
2022/04/03 03:28:08;;;;;;;2.13;2.00;;;0.10;99.90;;;;;;5261112;28;20693;-51
2022/04/03 03:30:39;;;;;;;5.80;2.33;;;0.10;99.90;;;;;;5264209;28;20187;-54
2022/04/03 03:33:09;;;;;;;5.07;2.37;;;0.20;99.90;;;;;;5260752;28;20850;-52
2022/04/03 03:35:40;;;;;;;4.07;2.73;;;0.20;99.90;;;;;;5256533;28;20197;-53
2022/04/03 03:38:12;;;;;;;2.97;2.77;;;0.10;99.90;;;;;;5261851;28;20685;-51
2022/04/03 03:40:44;;;;;;;4.53;3.87;;;0.20;99.90;;;;;;5261741;28;20742;-53
2022/04/03 03:43:15;;;;;;;8.67;2.30;;;0.20;99.90;;;;;;5264767;28;20931;-52
2022/04/03 03:45:45;;;;;;;2.07;1.97;;;0.20;99.90;;;;;;5265905;28;20457;-50
2022/04/03 03:48:16;;;;;;;3.33;2.33;;;0.20;99.90;;;;;;5264159;28;20603;-53
2022/04/03 03:50:46;;;;;;;4.50;2.57;;;0.20;99.90;;;;;;5257580;28;20178;-52
2022/04/03 03:53:18;;;;;;;2.57;2.37;;;0.20;99.90;;;;;;5260730;28;20265;-53
2022/04/03 03:55:49;;;;;;;2.50;2.33;;;0.20;99.90;;;;;;5265101;28;20183;-51
2022/04/03 03:58:20;;;;;;;3.03;2.70;;;0.20;99.90;;;;;;5264247;28;20477;-52
2022/04/03 04:00:50;;;;;;;2.10;2.00;;;0.30;99.90;;;;;;5259255;28;20908;-50
2022/04/03 04:03:21;;;;;;;3.67;2.70;;;0.20;99.90;;;;;;5263671;28;20224;-51
2022/04/03 04:05:51;;;;;;;2.80;2.33;;;0.20;99.90;;;;;;5261458;28;20197;-53
2022/04/03 04:08:22;;;;;;;3.70;2.70;;;0.20;99.90;;;;;;5259041;28;20662;-51
2022/04/03 04:10:52;;;;;;;2.40;2.20;;;0.20;99.90;;;;;;5267229;28;20174;-52
2022/04/03 04:13:24;;;;;;;1.60;1.50;;;0.20;99.90;;;;;;5266531;28;20185;-53
2022/04/03 04:15:55;;;;;;;2.60;2.40;;;0.20;99.90;;;;;;5268416;28;20189;-50
2022/04/03 04:18:25;;;;;;;2.17;2.07;;;0.20;99.90;;;;;;5259572;28;20789;-51
2022/04/03 04:20:57;;;;;;;2.33;2.17;;;0.10;99.90;;;;;;5255920;28;20284;-51
2022/04/03 04:23:27;;;;;;;2.60;2.50;;;0.10;99.90;;;;;;5265083;28;20646;-51
2022/04/03 04:25:58;;;;;;;7.27;2.20;;;0.10;99.90;;;;;;5262373;28;20496;-51
2022/04/03 04:28:29;;;;;;;4.37;1.83;;;0.10;99.90;;;;;;5268026;28;20850;-52
2022/04/03 04:30:59;;;;;;;6.10;2.20;;;0.10;99.90;;;;;;5269579;28;20185;-50
2022/04/03 04:33:30;;;;;;;1.57;1.47;;;0.10;99.90;;;;;;5258445;28;20189;-52
2022/04/03 04:36:00;;;;;;;2.27;2.07;;;0.10;99.90;;;;;;5257986;28;20228;-51
2022/04/03 04:38:31;;;;;;;2.10;2.00;;;0.10;99.90;;;;;;5257632;28;20217;-52
2022/04/03 04:41:02;;;;;;;2.80;2.60;;;0.20;99.90;;;;;;5266594;28;20558;-53
2022/04/03 04:43:32;;;;;;;6.53;3.00;;;0.10;99.90;;;;;;5261216;28;20174;-51
2022/04/03 04:46:03;;;;;;;2.53;2.33;;;0.10;99.90;;;;;;5247608;28;20178;-51
2022/04/03 04:48:34;;;;;;;3.37;3.17;;;0.10;99.90;;;;;;5259568;28;20201;-54
2022/04/03 04:51:05;;;;;;;6.73;3.57;;;0.10;99.90;;;;;;5260190;28;20182;-48
2022/04/03 04:53:35;;;;;;;4.27;2.63;;;0.10;99.90;;;;;;5250616;28;20439;-51
2022/04/03 04:56:06;;;;;;;2.90;2.10;;;0.10;99.70;;;;;;5266089;28;20205;-52
2022/04/03 04:58:36;;;;;;;3.50;3.10;;;0.10;99.60;;;;;;5266298;28;20205;-52
2022/04/03 05:01:07;;;;;;;3.20;3.00;;;0.00;99.40;;;;;;5268706;28;20213;-51
2022/04/03 05:03:37;;;;;;;5.00;2.90;;;0.00;99.40;;;;;;5260776;28;20185;-51
2022/04/03 05:06:12;;;;;;;2.20;2.10;;;0.10;99.50;;;;;;5257981;28;20293;-48
2022/04/03 05:08:43;;;;;;;4.50;2.80;;;0.00;99.50;;;;;;5278497;28;20681;-50
2022/04/03 05:11:14;;;;;;;3.57;3.10;;;0.00;99.40;;;;;;5252375;28;20454;-54
2022/04/03 05:13:46;;;;;;;2.50;2.30;;;0.00;99.50;;;;;;5256908;28;20447;-54
2022/04/03 05:16:17;;;;;;;2.80;2.60;;;-0.10;99.40;;;;;;5243726;28;20196;-50
2022/04/03 05:18:48;;;;;;;2.40;2.20;;;-0.10;99.50;;;;;;5267149;28;20554;-50
2022/04/03 05:21:18;;;;;;;2.37;2.27;;;0.10;99.10;;;;;;5257678;28;20554;-49
2022/04/03 05:23:49;;;;;;;3.37;2.60;;;0.10;98.60;;;;;;5260370;28;20187;-52
2022/04/03 05:26:20;;;;;;;5.03;2.67;;;0.20;98.50;;;;;;5263018;28;20273;-52
2022/04/03 05:28:50;;;;;;;2.17;2.07;;;0.20;97.90;;;;;;5263707;28;20272;-49
2022/04/03 05:31:21;;;;;;;2.23;2.13;;;0.20;97.50;;;;;;5264793;28;20178;-51
2022/04/03 05:33:53;;;;;;;2.10;2.00;;;0.30;97.10;;;;;;5259894;28;20182;-52
2022/04/03 05:36:24;;;;;;;1.97;1.93;;;0.40;96.50;;;;;;5260273;28;21240;-52
2022/04/03 05:38:54;;;;;;;4.10;2.27;;;0.40;96.00;;;;;;5257693;28;20456;-50
2022/04/03 05:41:25;;;;;;;2.07;1.80;;;0.50;95.50;;;;;;5266253;28;20219;-50
2022/04/03 05:43:55;;;;;;;1.90;1.80;;;0.50;95.10;;;;;;5263009;28;20195;-50
2022/04/03 05:46:26;;;;;;;2.20;1.77;;;0.60;93.90;;;;;;5261122;28;20188;-51
2022/04/03 05:48:57;;;;;;;1.80;1.70;;;0.70;93.60;;;;;;5254170;28;20225;-50
2022/04/03 05:51:27;;;;;;;3.30;2.30;;;0.60;92.70;;;;;;5254528;28;20213;-51
2022/04/03 05:53:58;;;;;;;2.00;1.90;;;0.70;92.50;;;;;;5262315;28;20190;-50
2022/04/03 05:56:28;;;;;;;2.67;1.90;;;0.80;91.70;;;;;;5284489;27;20251;-50
2022/04/03 05:58:59;;;;;;;2.37;2.17;;;1.00;91.30;;;;;;5266195;28;20205;-51
2022/04/03 06:01:29;;;;;;;3.10;2.07;;;1.00;90.60;;;;;;5252496;28;20736;-50
2022/04/03 06:04:00;;;;;;;2.00;1.70;;;1.00;90.30;;;;;;5256918;28;20195;-51
2022/04/03 06:06:31;;;;;;;1.97;1.97;;;1.00;89.90;;;;;;5258367;28;21756;-52
2022/04/03 06:09:01;;;;;;;7.20;2.23;;;1.10;89.60;;;;;;5263982;28;20195;-51
2022/04/03 06:11:32;;;;;;;5.00;2.60;;;1.30;87.40;;;;;;5262315;28;20177;-53
2022/04/03 06:14:02;;;;;;;1.80;1.73;;;1.60;85.80;;;;;;5253927;28;20194;-52
2022/04/03 06:16:33;;;;;;;2.20;2.00;;;1.90;82.70;;;;;;5253383;28;20250;-50
2022/04/03 06:19:03;;;;;;;5.00;2.37;;;2.20;78.30;;;;;;5247277;28;20272;-50
2022/04/03 06:21:34;;;;;;;3.13;1.73;;;2.50;72.30;;;;;;5257267;28;20198;-52
2022/04/03 06:24:05;;;;;;;1.90;1.60;;;2.70;69.00;;;;;;5275500;28;20180;-53
2022/04/03 06:26:35;;;;;;;1.90;1.80;;;3.00;67.10;;;;;;5252227;28;20561;-49
2022/04/03 06:29:06;;;;;;;2.10;2.00;;;3.10;64.20;;;;;;5258045;28;20205;-53
2022/04/03 06:31:36;;;;;;;4.47;2.53;;;3.00;62.40;;;;;;5266378;28;20181;-51
2022/04/03 06:34:07;;;;;;;2.93;1.87;;;2.90;62.00;;;;;;5259954;28;20173;-52
2022/04/03 06:36:37;;;;;;;7.60;2.20;;;2.70;62.50;;;;;;5258044;28;20213;-52
2022/04/03 06:39:08;;;;;;;2.03;1.67;;;2.70;63.50;;;;;;5259845;28;20276;-51
2022/04/03 06:41:39;;;;;;;6.40;1.83;;;4.50;59.20;;;;;;5257540;28;20284;-49
2022/04/03 06:44:09;;;;;;;1.97;1.97;;;6.50;51.60;;;;;;5260896;28;20186;-49
2022/04/03 06:46:40;;;;;;;1.60;1.60;;;9.10;42.20;;;;;;5260542;28;20476;-51
2022/04/03 06:49:10;;;;;;;3.13;1.50;;;11.60;35.80;;;;;;5258437;28;20212;-51
2022/04/03 06:51:41;;;;;;;2.00;1.87;;;13.50;31.30;;;;;;5254001;28;20244;-51
2022/04/03 06:54:11;;;;;;;4.27;2.37;;;15.20;29.00;;;;;;5258333;28;20823;-51
2022/04/03 06:56:42;;;;;;;1.50;1.50;;;16.30;27.20;;;;;;5258243;28;20193;-52
2022/04/03 06:59:12;;;;;;;1.90;1.80;;;17.50;25.70;;;;;;5255831;28;20210;-51
2022/04/03 07:01:43;;;;;;;1.80;1.70;;;18.10;24.70;;;;;;5251217;28;20216;-50
2022/04/03 07:04:13;;;;;;;1.97;1.87;;;18.70;23.80;;;;;;5263044;28;20256;-51
2022/04/03 07:06:44;;;;;;;2.30;2.10;;;18.50;23.70;;;;;;5260529;28;20253;-51
2022/04/03 07:09:14;;;;;;;2.00;1.90;;;16.80;23.80;;;;;;5258467;28;20673;-51
2022/04/03 07:11:45;;;;;;;2.23;2.10;;;15.00;25.00;;;;;;5264407;28;20178;-52
2022/04/03 07:14:15;;;;;;;2.00;1.90;;;14.00;26.60;;;;;;5250923;28;20190;-51
2022/04/03 07:16:46;;;;;;;2.30;1.60;;;15.50;26.10;;;;;;5266775;28;20177;-50
2022/04/03 07:19:16;;;;;;;2.23;2.13;;;16.30;25.00;;;;;;5263497;28;20212;-49
2022/04/03 07:21:47;;;;;;;2.20;1.80;;;16.40;24.60;;;;;;5254422;28;20201;-52
2022/04/03 07:24:17;;;;;;;1.73;1.63;;;14.90;24.70;;;;;;5251155;28;20261;-50
2022/04/03 07:26:48;;;;;;;2.43;2.20;;;13.30;26.50;;;;;;5257166;28;20190;-52
2022/04/03 07:29:18;;;;;;;5.73;2.53;;;11.80;27.50;;;;;;5260155;28;20205;-50
2022/04/03 07:31:53;;;;;;;1.90;1.80;;;10.60;28.90;;;;;;5262536;28;20304;-52
2022/04/03 07:34:24;;;;;;;7.00;3.90;;;9.70;30.40;;;;;;5245075;28;20191;-49
2022/04/03 07:36:56;;;;;;;2.33;1.90;;;9.00;31.60;;;;;;5261964;28;20783;-50
2022/04/03 07:39:27;;;;;;;2.47;2.10;;;8.70;32.80;;;;;;5269013;28;20488;-50
2022/04/03 07:41:57;;;;;;;5.10;2.13;;;8.60;34.10;;;;;;5264419;28;20459;-51
2022/04/03 07:44:28;;;;;;;2.63;2.00;;;8.40;33.90;;;;;;5264661;28;20648;-51
2022/04/03 07:46:58;;;;;;;2.33;2.13;;;8.00;34.60;;;;;;5263209;28;20197;-51
2022/04/03 07:49:29;;;;;;;6.13;2.93;;;7.90;35.00;;;;;;5262581;28;20205;-51
2022/04/03 07:51:59;;;;;;;2.13;2.00;;;7.90;35.40;;;;;;5267478;28;20193;-54
2022/04/03 07:54:30;;;;;;;2.43;1.90;;;7.80;35.60;;;;;;5265793;28;20781;-50
2022/04/03 07:57:01;;;;;;;3.07;2.37;;;7.60;36.10;;;;;;5264268;28;20212;-53
2022/04/03 07:59:31;;;;;;;2.03;1.90;;;7.20;36.60;;;;;;5259339;28;20244;-50
2022/04/03 08:02:03;;;;;;;1.80;1.70;;;7.10;37.30;;;;;;5259599;28;20286;-52
2022/04/03 08:04:33;;;;;;;1.90;1.80;;;6.70;38.10;;;;;;5260084;28;20185;-51
2022/04/03 08:07:04;;;;;;;2.57;2.37;;;6.30;39.00;;;;;;5261449;28;20439;-52
2022/04/03 08:09:34;;;;;;;1.50;1.50;;;6.10;39.90;;;;;;5258774;28;20201;-51
2022/04/03 08:12:06;;;;;;;1.37;1.37;;;5.60;40.90;;;;;;5257378;28;20268;-50
2022/04/03 08:14:36;;;;;;;2.20;1.60;;;5.20;42.10;;;;;;5254334;28;20192;-50
2022/04/03 08:17:07;;;;;;;3.70;2.13;;;5.20;42.70;;;;;;5252973;28;20448;-53
2022/04/03 08:19:37;;;;;;;2.20;1.77;;;5.40;43.40;;;;;;5257502;28;20259;-50
2022/04/03 08:22:07;;;;;;;1.30;1.00;;;5.30;43.00;;;;;;5262735;28;20296;-51
2022/04/03 08:24:38;;;;;;;1.60;1.60;;;5.30;43.30;;;;;;5264030;28;20187;-51
2022/04/03 08:27:10;;;;;;;4.20;1.87;;;5.70;43.30;;;;;;5259494;28;20200;-52
2022/04/03 08:29:40;;;;;;;2.23;1.80;;;6.10;42.50;;;;;;5264218;28;20177;-49
2022/04/03 08:32:12;;;;;;;2.23;1.53;;;6.40;42.10;;;;;;5250458;28;20440;-53
2022/04/03 08:34:43;;;;;;;1.70;1.60;;;7.10;41.40;;;;;;5256918;28;20181;-51
2022/04/03 08:37:14;;;;;;;1.40;1.30;;;7.90;39.90;;;;;;5261946;28;20457;-50
2022/04/03 08:39:44;;;;;;;1.83;1.53;;;8.10;38.50;;;;;;5257920;28;20226;-50
2022/04/03 08:42:15;;;;;;;1.53;1.53;;;8.30;37.90;;;;;;5257992;28;20221;-53
2022/04/03 08:44:45;;;;;;;1.67;1.53;;;8.30;37.80;;;;;;5244817;28;20170;-52
2022/04/03 08:47:17;;;;;;;4.73;0.97;;;8.30;37.20;;;;;;5262847;28;20181;-53
2022/04/03 08:49:48;;;;;;;27.00;1.47;;;8.10;37.10;;;;;;5262593;28;20180;-53
2022/04/03 08:52:20;;;;;;;2.30;1.93;;;7.80;36.70;;;;;;5244968;28;20440;-52
2022/04/03 08:54:51;;;;;;;1.10;1.10;;;7.60;36.40;;;;;;5260150;28;20218;-53
2022/04/03 08:57:23;;;;;;;3.83;1.30;;;7.60;36.00;;;;;;5258982;28;20455;-52
2022/04/03 08:59:55;;;;;;;1.67;1.17;;;7.60;35.70;;;;;;5262301;28;20199;-50
2022/04/03 09:02:26;;;;;;;1.10;1.10;;;8.00;35.50;;;;;;5258566;28;20820;-51
2022/04/03 09:04:56;;;;;;;1.10;1.00;;;8.20;34.90;;;;;;5276035;28;20465;-49
2022/04/03 09:07:27;;;;;;;1.13;1.13;;;8.30;34.20;;;;;;5257915;28;20436;-50
2022/04/03 09:10:05;;;;;;;4.63;1.37;;;8.40;33.10;;;;;;5257489;28;20332;-53
2022/04/03 09:12:50;;;;;;;2.93;0.77;;;8.60;32.50;;;;;;5259143;28;20185;-51
2022/04/03 09:15:22;;;;;;;2.67;1.90;;;8.50;32.70;;;;;;5240192;22;20512;-51
2022/04/03 09:17:55;;;;;;;2.80;2.10;;;8.10;33.80;;;;;;5218155;28;20444;-52
2022/04/03 09:20:34;;;;;;;1.20;1.10;;;8.20;34.40;;;;;;5213743;28;22845;-51
2022/04/03 09:23:07;;;;;;;1.90;1.23;;;7.90;33.70;;;;;;5218944;28;20441;-50
2022/04/03 09:25:43;;;;;;;7.93;1.50;;;8.10;33.70;;;;;;5219689;28;20506;-50
2022/04/03 09:28:14;;;;;;;1.70;1.60;;;8.10;33.10;;;;;;5217918;28;20429;-49
2022/04/03 09:30:48;;;;;;;2.60;1.23;;;8.20;33.20;;;;;;5216436;28;20507;-50
2022/04/03 09:33:20;;;;;;;1.47;1.37;;;8.20;32.80;;;;;;5222877;28;20175;-49
2022/04/03 09:36:03;;;;;;;1.50;1.40;;;8.50;33.10;;;;;;5214522;28;20432;-51
2022/04/03 09:38:37;;;;;;;2.63;1.37;;;8.60;32.60;;;;;;5215239;28;20436;-51
2022/04/03 09:41:07;;;;;;;2.27;1.20;;;8.80;32.00;;;;;;5216773;28;20464;-50
2022/04/03 09:43:41;;;;;;;0.90;0.90;;;8.80;31.50;;;;;;5216721;28;20450;-49
2022/04/03 09:46:13;;;;;;;5.80;1.40;;;8.90;31.50;;;;;;5214443;28;20198;-48
2022/04/03 09:48:43;;;;;;;1.80;1.40;;;8.70;31.50;;;;;;5219752;28;20433;-50
2022/04/03 09:51:22;;;;;;;1.40;1.40;;;8.90;31.70;;;;;;5220058;28;20481;-50
2022/04/03 09:53:58;;;;;;;1.00;1.00;;;9.10;31.20;;;;;;5224876;28;20542;-51
2022/04/03 09:56:37;;;;;;;5.40;2.03;;;8.80;30.70;;;;;;5225655;28;20433;-52
2022/04/03 09:59:08;;;;;;;1.00;1.00;;;8.50;30.90;;;;;;5218257;28;20455;-49
2022/04/03 10:01:40;;;;;;;1.70;1.60;;;8.30;31.40;;;;;;5221723;28;20559;-51
2022/04/03 10:04:15;;;;;;;1.53;1.10;;;8.00;31.40;;;;;;5223087;28;20282;-50
2022/04/03 10:06:46;;;;;;;2.17;1.80;;;8.20;31.50;;;;;;5220392;28;20425;-49
2022/04/03 10:09:17;;;;;;;3.90;2.80;;;8.10;30.60;;;;;;5215079;28;20452;-50
2022/04/03 10:11:47;;;;;;;2.20;2.00;;;8.30;30.90;;;;;;5220086;28;20186;-49
2022/04/03 10:14:21;;;;;;;4.57;2.33;;;8.50;30.50;;;;;;5218992;28;20230;-54
2022/04/03 10:16:51;;;;;;;2.87;2.00;;;8.80;30.10;;;;;;5214951;28;20575;-50
2022/04/03 10:19:22;;;;;;;5.50;3.50;;;8.80;30.00;;;;;;5212103;28;20434;-49
2022/04/03 10:21:55;;;;;;;2.10;2.00;;;9.00;29.90;;;;;;5218458;28;20210;-50
2022/04/03 10:24:29;;;;;;;1.90;1.40;;;8.80;29.60;;;;;;5219082;28;20204;-49
2022/04/03 10:27:22;;;;;;;1.90;1.90;;;9.00;30.00;;;;;;5219397;28;20458;-51
2022/04/03 10:29:57;;;;;;;3.13;2.90;;;8.90;30.00;;;;;;5211473;28;20433;-50
2022/04/03 10:32:33;;;;;;;3.10;1.40;;;8.90;30.00;;;;;;5222776;28;20445;-49
2022/04/03 10:35:05;;;;;;;3.07;2.87;;;8.40;30.20;;;;;;5223541;28;20453;-52
2022/04/03 10:37:42;;;;;;;4.10;1.97;;;8.30;30.60;;;;;;5223793;28;20784;-51
2022/04/03 10:40:18;;;;;;;2.27;1.47;;;8.50;30.20;;;;;;5215423;28;20447;-51
2022/04/03 10:42:58;;;;;;;1.40;1.30;;;8.40;29.70;;;;;;5222842;28;20480;-51
2022/04/03 10:45:36;;;;;;;1.30;1.30;;;8.50;29.90;;;;;;5224483;28;20875;-49
2022/04/03 10:48:19;;;;;;;2.70;1.40;;;8.30;29.50;;;;;;5216528;28;20437;-49
2022/04/03 10:51:03;;;;;;;2.00;1.67;;;8.10;29.40;;;;;;5219566;28;20437;-49
2022/04/03 10:53:36;;;;;;;2.10;1.90;;;8.10;29.50;;;;;;5216815;28;20486;-50
2022/04/03 10:56:21;;;;;;;6.03;3.00;;;7.90;29.40;;;;;;5219519;28;20440;-53
2022/04/03 10:58:53;;;;;;;1.00;1.00;;;7.60;29.60;;;;;;5220938;28;20434;-48
2022/04/03 11:01:28;;;;;;;2.70;1.87;;;7.60;29.60;;;;;;5221408;28;20776;-51
2022/04/03 11:04:13;;;;;;;1.43;1.33;;;7.30;29.70;;;;;;5217852;28;20606;-50
2022/04/03 11:06:45;;;;;;;1.50;1.40;;;7.30;30.00;;;;;;5219235;28;20429;-49
2022/04/03 11:09:24;;;;;;;6.03;4.40;;;7.60;30.70;;;;;;5222906;28;20842;-50
2022/04/03 11:12:01;;;;;;;4.70;2.10;;;7.50;29.90;;;;;;5219577;28;20433;-49
2022/04/03 11:14:55;;;;;;;3.67;2.87;;;7.30;30.00;;;;;;5222869;28;20518;-50
2022/04/03 11:17:50;;;;;;;29.27;18.07;;;7.70;30.50;;;;;;5223918;28;20421;-50
2022/04/03 11:20:42;;;;;;;15.03;3.37;;;8.30;29.60;;;;;;5227251;28;20445;-50
2022/04/03 11:23:16;;;;;;;13.93;9.07;;;8.50;29.00;;;;;;5210271;28;20899;-51
2022/04/03 11:25:46;;;;;;;4.10;3.73;;;8.60;28.60;;;;;;5224950;28;20437;-49
2022/04/03 11:28:17;;;;;;;1.90;1.80;;;8.30;28.70;;;;;;5222999;28;20437;-50
2022/04/03 11:30:49;;;;;;;2.97;2.70;;;8.10;28.80;;;;;;5229720;28;20182;-50
2022/04/03 11:33:21;;;;;;;7.10;2.90;;;8.40;29.00;;;;;;5226244;28;20187;-49
2022/04/03 11:35:53;;;;;;;5.20;3.03;;;8.80;28.80;;;;;;5218333;28;20968;-51
2022/04/03 11:38:33;;;;;;;3.67;2.30;;;8.80;28.60;;;;;;5227260;28;20421;-51
2022/04/03 11:41:06;;;;;;;2.90;2.70;;;8.80;28.90;;;;;;5225285;28;20814;-53
2022/04/03 11:43:37;;;;;;;3.33;1.90;;;8.90;28.60;;;;;;5211332;28;20514;-49
2022/04/03 11:46:08;;;;;;;2.13;2.03;;;8.90;28.90;;;;;;5226126;28;20448;-50
2022/04/03 11:48:43;;;;;;;2.30;2.20;;;8.80;29.00;;;;;;5225009;28;20175;-48
2022/04/03 11:51:17;;;;;;;7.33;5.47;;;9.00;29.20;;;;;;5223283;28;20513;-49
2022/04/03 11:54:01;;;;;;;14.03;10.00;;;8.80;29.10;;;;;;5222101;28;20462;-52
2022/04/03 11:56:35;;;;;;;29.13;11.43;;;8.60;30.00;;;;;;5222151;28;20436;-49
2022/04/03 11:59:09;;;;;;;11.80;6.90;;;8.50;29.90;;;;;;5224723;28;20437;-51
2022/04/03 12:01:49;;;;;;;2.27;2.07;;;8.80;29.90;;;;;;5224886;28;20987;-49
2022/04/03 12:04:22;;;;;;;1.40;1.40;;;8.90;29.20;;;;;;5223476;28;20985;-49
2022/04/03 12:07:00;;;;;;;2.13;1.77;;;9.00;29.20;;;;;;5219440;28;20483;-49
2022/04/03 12:09:32;;;;;;;2.10;1.80;;;9.00;29.20;;;;;;5225126;28;20432;-50
2022/04/03 12:12:04;;;;;;;11.13;5.60;;;9.00;29.40;;;;;;5223308;28;20437;-50
2022/04/03 12:14:42;;;;;;;4.23;3.50;;;8.90;29.50;;;;;;5226646;28;20452;-50
2022/04/03 12:17:15;;;;;;;2.60;2.10;;;9.00;29.90;;;;;;5222781;28;20495;-50
2022/04/03 12:19:47;;;;;;;4.47;2.40;;;8.90;30.00;;;;;;5220087;28;20850;-51
2022/04/03 12:22:20;;;;;;;3.43;1.97;;;8.60;30.50;;;;;;5214003;28;20832;-49
2022/04/03 12:24:53;;;;;;;1.30;1.27;;;8.50;31.10;;;;;;5218075;28;21043;-51
2022/04/03 12:27:30;;;;;;;2.30;1.33;;;8.70;31.50;;;;;;5221739;28;20859;-52
2022/04/03 12:30:01;;;;;;;1.47;1.33;;;8.80;31.00;;;;;;5220300;28;20487;-49
2022/04/03 12:32:35;;;;;;;3.73;1.70;;;9.10;30.30;;;;;;5220113;28;20921;-50
2022/04/03 12:35:08;;;;;;;4.80;2.90;;;9.00;29.10;;;;;;5224162;28;20203;-52
2022/04/03 12:37:42;;;;;;;2.10;1.90;;;8.70;29.70;;;;;;5219372;28;20437;-49
2022/04/03 12:40:15;;;;;;;4.20;2.80;;;8.90;30.10;;;;;;5221777;28;20780;-50
2022/04/03 12:42:46;;;;;;;8.63;2.20;;;9.20;30.10;;;;;;5214699;28;20462;-51
2022/04/03 12:45:23;;;;;;;2.77;1.57;;;9.30;30.70;;;;;;5220558;28;20459;-50
2022/04/03 12:47:57;;;;;;;3.17;2.27;;;9.30;30.10;;;;;;5214282;28;20462;-51
2022/04/03 12:50:31;;;;;;;9.97;5.60;;;9.30;30.30;;;;;;5225567;28;20421;-51
2022/04/03 12:53:03;;;;;;;4.57;1.57;;;9.10;30.00;;;;;;5217651;28;20842;-51
2022/04/03 12:55:41;;;;;;;3.13;1.40;;;8.90;30.10;;;;;;5202260;28;20536;-51
2022/04/03 12:58:26;;;;;;;6.27;1.73;;;8.80;30.50;;;;;;5223733;28;20439;-50
2022/04/03 13:01:00;;;;;;;2.07;1.97;;;8.90;30.80;;;;;;5220794;28;20445;-51
2022/04/03 13:03:43;;;;;;;4.13;2.97;;;9.30;30.70;;;;;;5221216;28;20441;-51
2022/04/03 13:06:16;;;;;;;4.70;3.47;;;9.70;30.50;;;;;;5223209;28;20449;-50
2022/04/03 13:09:01;;;;;;;10.83;6.70;;;9.70;29.70;;;;;;5226410;28;20465;-50
2022/04/03 13:11:56;;;;;;;23.83;7.60;;;9.50;29.90;;;;;;5214492;28;20576;-51
2022/04/03 13:14:35;;;;;;;7.13;4.00;;;9.60;30.20;;;;;;5211864;28;20571;-50
2022/04/03 13:17:08;;;;;;;13.87;5.47;;;9.40;30.80;;;;;;5226085;28;20476;-51
2022/04/03 13:19:38;;;;;;;3.10;1.80;;;9.30;31.50;;;;;;5229327;28;20488;-49